Pejepscot, Maine
Current Conditions -  °F | °C
As of 5:01 AM on Thursday 18 Dec 2014 (Local Time) from KIWI Reporting Station
Overcast Overcast  
Wind Chill: 36°   Ceiling: 4100
Heat Index: 36°   Visibility: 10mi
Dew Point: 34°   Wind: 0mph
Humidity: 93%   Direction: NA
Pressure: 29.63"   Gusts: NA
Location:  43.9677°N, 69.9739°W
Report Text: KIWI 181001Z AUTO 00000KT 10SM FEW020 BKN041 OVC095 02/01 A2963 RMK AO2 P0001 T00220011
Loading
Personal Weather Stations






























Interactive Weather Map New forecast layout! Learn more

10-Day Weather Forecast

Advertisements
Track Severe Weather on mobile